Time;durP1;ratioP1;P1;durP2;ratioP2;P2;SDS_P1;SDS_P2;PMS_P1;PMS_P2;Temp;Humidity;BMP_temperature;BMP_pressure;BME280_temperature;BME280_humidity;BME280_pressure;Samples;Min_cycle;Max_cycle;Signal;HPM_P1;HPM_P2
2023/06/02 00:02:17;;;;;;;23.20;16.93;;;29.80;99.90;;;;;;1861798;77;21247;-88
2023/06/02 00:04:49;;;;;;;33.80;17.75;;;29.80;99.90;;;;;;1851695;76;21893;-88
2023/06/02 00:07:25;;;;;;;24.70;17.17;;;29.80;99.90;;;;;;1860075;75;21171;-87
2023/06/02 00:09:55;;;;;;;22.60;16.12;;;29.80;99.90;;;;;;1848279;77;21143;-89
2023/06/02 00:12:27;;;;;;;22.90;16.15;;;29.90;99.90;;;;;;1847411;77;21125;-88
2023/06/02 00:15:04;;;;;;;24.63;16.93;;;29.80;99.90;;;;;;1855422;77;21171;-88
2023/06/02 00:17:35;;;;;;;23.92;17.02;;;29.90;99.90;;;;;;1847927;76;21118;-88
2023/06/02 00:20:07;;;;;;;20.72;15.40;;;29.90;99.90;;;;;;1848425;77;21569;-88
2023/06/02 00:22:38;;;;;;;25.97;16.17;;;29.90;99.90;;;;;;1860149;76;21053;-89
2023/06/02 00:25:10;;;;;;;23.12;15.30;;;30.00;99.90;;;;;;1862708;77;21124;-89
2023/06/02 00:27:41;;;;;;;23.65;15.70;;;30.00;99.90;;;;;;1846591;76;21147;-87
2023/06/02 00:30:14;;;;;;;31.82;15.90;;;30.00;99.90;;;;;;1849366;77;21217;-90
2023/06/02 00:32:45;;;;;;;21.82;14.68;;;30.10;99.90;;;;;;1858432;75;21647;-89
2023/06/02 00:35:17;;;;;;;23.92;14.80;;;30.10;99.90;;;;;;1857571;77;21260;-86
2023/06/02 00:37:48;;;;;;;16.27;12.47;;;30.10;99.90;;;;;;1848556;77;21090;-86
2023/06/02 00:40:21;;;;;;;17.95;12.33;;;30.20;99.60;;;;;;1850090;77;21183;-86
2023/06/02 00:42:53;;;;;;;20.52;12.03;;;30.20;99.50;;;;;;1845246;75;21191;-87
2023/06/02 00:45:24;;;;;;;22.82;12.33;;;30.20;99.50;;;;;;1852518;77;21135;-86
2023/06/02 00:47:55;;;;;;;27.77;13.68;;;30.30;99.30;;;;;;1857063;76;21164;-76
2023/06/02 00:50:27;;;;;;;18.32;11.53;;;30.40;99.30;;;;;;1847291;77;21146;-76
2023/06/02 00:52:59;;;;;;;17.10;11.20;;;30.50;99.10;;;;;;1830021;78;21135;-83
2023/06/02 00:55:31;;;;;;;16.57;10.98;;;30.60;99.00;;;;;;1851534;77;21280;-84
2023/06/02 00:58:07;;;;;;;17.45;10.75;;;30.70;98.50;;;;;;1848731;77;21109;-78
2023/06/02 01:00:38;;;;;;;16.67;10.25;;;30.70;98.40;;;;;;1845889;77;21721;-78
2023/06/02 01:03:13;;;;;;;17.67;11.65;;;30.80;98.00;;;;;;1859321;77;21116;-77
2023/06/02 01:05:45;;;;;;;21.00;11.63;;;30.80;97.90;;;;;;1852420;77;21212;-77
2023/06/02 01:08:17;;;;;;;14.58;10.98;;;30.80;98.10;;;;;;1811131;78;21216;-81
2023/06/02 01:10:49;;;;;;;18.73;11.00;;;30.80;98.20;;;;;;1822821;78;21288;-77
2023/06/02 01:13:20;;;;;;;18.25;11.05;;;30.80;98.10;;;;;;1820415;78;21149;-82
2023/06/02 01:15:52;;;;;;;16.70;11.53;;;30.90;98.10;;;;;;1879763;75;21658;-84
2023/06/02 01:18:25;;;;;;;16.30;11.05;;;31.00;97.80;;;;;;1880845;75;21158;-86
2023/06/02 01:20:58;;;;;;;16.95;11.88;;;31.00;97.60;;;;;;1885239;75;21158;-86
2023/06/02 01:23:37;;;;;;;19.00;11.93;;;31.00;97.80;;;;;;1887422;74;21099;-85
2023/06/02 01:26:12;;;;;;;19.92;11.75;;;31.00;97.30;;;;;;1884994;75;21150;-86
2023/06/02 01:28:41;;;;;;;17.73;11.57;;;31.00;97.50;;;;;;1881370;75;21248;-85
2023/06/02 01:31:17;;;;;;;16.93;12.07;;;31.00;97.70;;;;;;1878343;75;21501;-86
2023/06/02 01:33:56;;;;;;;19.15;13.20;;;31.00;97.40;;;;;;1880199;75;21129;-86
2023/06/02 01:36:29;;;;;;;21.93;12.20;;;31.10;97.40;;;;;;1855498;75;21107;-86
2023/06/02 01:39:03;;;;;;;19.40;11.83;;;31.20;97.40;;;;;;1883153;75;21943;-88
2023/06/02 01:41:36;;;;;;;19.82;11.80;;;31.30;97.80;;;;;;1882867;75;21178;-85
2023/06/02 01:44:09;;;;;;;17.55;11.80;;;31.50;97.00;;;;;;1887114;75;21212;-85
2023/06/02 01:46:41;;;;;;;24.15;11.57;;;31.60;96.80;;;;;;1878612;75;21253;-85
2023/06/02 01:49:16;;;;;;;62.93;15.40;;;31.70;96.40;;;;;;1878471;75;21135;-87
2023/06/02 01:51:48;;;;;;;17.75;10.98;;;31.80;96.30;;;;;;1884920;75;21602;-85
2023/06/02 01:54:19;;;;;;;16.52;11.88;;;31.90;95.80;;;;;;1875171;75;21178;-86
2023/06/02 01:56:50;;;;;;;19.73;11.93;;;31.90;95.50;;;;;;1882789;75;21640;-86
2023/06/02 01:59:22;;;;;;;15.83;11.93;;;31.90;95.60;;;;;;1875754;75;21167;-85
2023/06/02 02:01:53;;;;;;;19.30;12.05;;;32.00;95.70;;;;;;1884361;75;21088;-85
2023/06/02 02:04:25;;;;;;;15.00;11.73;;;32.10;95.40;;;;;;1879158;75;21163;-87
2023/06/02 02:06:56;;;;;;;13.75;10.25;;;32.10;95.10;;;;;;1878282;75;21154;-85
2023/06/02 02:09:28;;;;;;;15.08;11.15;;;32.10;95.20;;;;;;1853638;75;21191;-86
2023/06/02 02:11:59;;;;;;;19.25;11.55;;;32.30;95.30;;;;;;1851972;77;21174;-84
2023/06/02 02:14:31;;;;;;;19.55;11.93;;;32.30;94.70;;;;;;1852094;77;21190;-84
2023/06/02 02:17:02;;;;;;;17.48;12.78;;;32.40;94.90;;;;;;1850194;77;21128;-84
2023/06/02 02:19:34;;;;;;;25.50;14.07;;;32.50;94.90;;;;;;1855026;77;21226;-85
2023/06/02 02:22:06;;;;;;;27.87;13.05;;;32.60;95.00;;;;;;1850739;77;21134;-87
2023/06/02 02:24:38;;;;;;;24.92;13.28;;;32.70;95.20;;;;;;1855833;77;21186;-85
2023/06/02 02:27:12;;;;;;;22.90;12.30;;;32.90;94.80;;;;;;1853415;77;21132;-84
2023/06/02 02:29:44;;;;;;;46.45;16.17;;;32.80;94.90;;;;;;1853636;77;21177;-85
2023/06/02 02:32:16;;;;;;;37.60;15.43;;;32.90;94.90;;;;;;1854526;77;22005;-86
2023/06/02 02:34:50;;;;;;;27.70;13.65;;;33.00;94.60;;;;;;1852932;77;21668;-87
2023/06/02 02:37:20;;;;;;;27.15;13.08;;;33.10;94.60;;;;;;1856359;75;21125;-86
2023/06/02 02:39:53;;;;;;;25.02;12.82;;;33.20;94.50;;;;;;1850438;76;21171;-87
2023/06/02 02:42:24;;;;;;;18.30;11.73;;;33.30;94.20;;;;;;1856094;77;21112;-86
2023/06/02 02:44:56;;;;;;;17.57;11.63;;;33.40;93.70;;;;;;1854107;77;21086;-85
2023/06/02 02:47:27;;;;;;;17.12;12.50;;;33.40;92.90;;;;;;1850074;77;21053;-85
2023/06/02 02:49:58;;;;;;;17.10;11.08;;;33.30;93.10;;;;;;1852244;77;21081;-86
2023/06/02 02:52:32;;;;;;;15.98;10.75;;;33.20;93.30;;;;;;1854559;77;21146;-85
2023/06/02 02:55:04;;;;;;;17.55;11.93;;;33.20;93.20;;;;;;1858952;77;21689;-85
2023/06/02 02:57:38;;;;;;;34.98;13.80;;;33.20;93.70;;;;;;1857065;77;21152;-86
2023/06/02 03:00:14;;;;;;;70.15;18.60;;;33.40;93.60;;;;;;1858361;77;21136;-84
2023/06/02 03:02:48;;;;;;;17.82;12.07;;;33.50;93.20;;;;;;1858970;77;21205;-83
2023/06/02 03:05:41;;;;;;;19.95;12.00;;;33.60;92.20;;;;;;1853558;76;21148;-86
2023/06/02 03:08:07;;;;;;;22.07;11.33;;;33.70;92.30;;;;;;1817608;78;21130;-85
2023/06/02 03:10:44;;;;;;;22.67;11.90;;;33.70;92.50;;;;;;1865242;76;21100;-85
2023/06/02 03:13:15;;;;;;;19.73;11.40;;;33.80;92.60;;;;;;1857087;75;21183;-84
2023/06/02 03:15:51;;;;;;;20.82;12.10;;;34.00;91.30;;;;;;1864352;76;21128;-85
2023/06/02 03:18:25;;;;;;;25.10;11.35;;;34.00;91.60;;;;;;1863474;76;21204;-86
2023/06/02 03:20:58;;;;;;;14.55;11.05;;;34.10;91.90;;;;;;1871930;76;21080;-85
2023/06/02 03:23:30;;;;;;;16.65;11.30;;;34.20;92.00;;;;;;1870341;76;21626;-85
2023/06/02 03:26:02;;;;;;;15.45;11.38;;;34.40;91.50;;;;;;1860496;76;21119;-85
2023/06/02 03:28:35;;;;;;;15.35;12.05;;;34.40;91.70;;;;;;1863634;76;21167;-87
2023/06/02 03:31:28;;;;;;;19.75;11.43;;;34.40;91.30;;;;;;1874693;76;21209;-86
2023/06/02 03:34:17;;;;;;;16.27;11.45;;;34.20;91.70;;;;;;1854590;76;21162;-86
2023/06/02 03:36:53;;;;;;;15.48;11.38;;;34.00;92.20;;;;;;1840282;77;21245;-86
2023/06/02 03:39:26;;;;;;;16.62;11.28;;;34.10;92.20;;;;;;1844481;77;21199;-86
2023/06/02 03:41:59;;;;;;;15.85;11.30;;;34.10;92.10;;;;;;1801418;79;21214;-88
2023/06/02 03:44:32;;;;;;;16.50;11.33;;;34.20;91.90;;;;;;1843069;76;21576;-86
2023/06/02 03:47:03;;;;;;;22.58;11.55;;;34.30;91.20;;;;;;1844391;76;21136;-87
2023/06/02 03:49:36;;;;;;;19.27;10.80;;;34.40;91.40;;;;;;1837999;77;21245;-88
2023/06/02 03:52:13;;;;;;;15.85;10.53;;;34.30;91.30;;;;;;1798849;77;21164;-87
2023/06/02 03:55:02;;;;;;;20.72;11.65;;;34.30;90.70;;;;;;1847101;76;21270;-85
2023/06/02 03:57:33;;;;;;;21.97;11.38;;;34.30;90.90;;;;;;1854732;76;21136;-87
2023/06/02 04:00:10;;;;;;;28.02;11.70;;;34.40;91.00;;;;;;1845574;77;21133;-85
2023/06/02 04:02:38;;;;;;;34.15;14.25;;;34.40;90.80;;;;;;1848928;76;21129;-85
2023/06/02 04:05:14;;;;;;;25.48;11.10;;;34.50;90.50;;;;;;1808345;78;21223;-84
2023/06/02 04:07:46;;;;;;;16.90;11.00;;;34.60;89.00;;;;;;1848701;76;21104;-85
2023/06/02 04:10:17;;;;;;;22.15;11.28;;;34.70;88.30;;;;;;1848234;76;21631;-86
2023/06/02 04:12:49;;;;;;;20.40;11.57;;;34.90;89.30;;;;;;1843753;76;21639;-85
2023/06/02 04:15:21;;;;;;;15.32;10.88;;;35.00;87.20;;;;;;1848360;76;21162;-85
2023/06/02 04:17:53;;;;;;;27.50;11.70;;;35.00;87.20;;;;;;1847498;76;21124;-85
2023/06/02 04:20:24;;;;;;;16.67;11.22;;;35.10;88.20;;;;;;1844575;76;21177;-85
2023/06/02 04:22:58;;;;;;;17.62;11.08;;;35.10;85.90;;;;;;1841685;76;21164;-86
2023/06/02 04:25:30;;;;;;;16.42;10.88;;;35.10;86.20;;;;;;1842273;76;21242;-86
2023/06/02 04:28:01;;;;;;;19.65;11.10;;;35.00;87.50;;;;;;1849071;77;21093;-87
2023/06/02 04:30:33;;;;;;;21.35;11.73;;;35.00;88.30;;;;;;1809321;79;21224;-83
2023/06/02 04:33:06;;;;;;;18.15;11.55;;;35.00;89.40;;;;;;1831676;77;21106;-84
2023/06/02 04:35:39;;;;;;;18.82;12.10;;;35.00;87.50;;;;;;1824411;78;21202;-85
2023/06/02 04:38:11;;;;;;;19.87;11.28;;;35.10;87.20;;;;;;1779485;80;21168;-85
2023/06/02 04:40:46;;;;;;;22.02;11.55;;;35.20;86.90;;;;;;1834370;77;21193;-87
2023/06/02 04:43:19;;;;;;;18.05;11.30;;;35.20;87.30;;;;;;1782017;80;21101;-88
2023/06/02 04:45:51;;;;;;;18.40;11.78;;;35.30;84.70;;;;;;1840246;77;21105;-83
2023/06/02 04:48:25;;;;;;;15.35;10.75;;;35.30;85.40;;;;;;1780483;78;21085;-82
2023/06/02 04:50:57;;;;;;;20.00;11.15;;;35.30;83.80;;;;;;1844372;76;21122;-84
2023/06/02 04:53:28;;;;;;;18.40;11.88;;;35.20;83.30;;;;;;1839526;74;21203;-85
2023/06/02 04:56:00;;;;;;;14.33;10.90;;;35.10;84.00;;;;;;1833924;77;21200;-83
2023/06/02 04:58:32;;;;;;;19.40;11.60;;;35.00;84.90;;;;;;1786671;79;21170;-86
2023/06/02 05:01:04;;;;;;;21.45;11.83;;;35.10;86.10;;;;;;1781642;80;21226;-85
2023/06/02 05:03:50;;;;;;;19.25;12.23;;;35.10;86.70;;;;;;1832654;77;21104;-86
2023/06/02 05:06:20;;;;;;;20.00;11.68;;;35.00;87.30;;;;;;1831697;77;21108;-86
2023/06/02 05:08:55;;;;;;;19.15;12.58;;;34.90;87.60;;;;;;1785031;80;21137;-85
2023/06/02 05:11:35;;;;;;;17.60;11.55;;;35.00;87.60;;;;;;1831679;76;21131;-85
2023/06/02 05:14:06;;;;;;;15.28;10.63;;;35.10;86.70;;;;;;1783274;80;21135;-83
2023/06/02 05:16:44;;;;;;;16.73;11.55;;;35.30;85.50;;;;;;1826228;77;21105;-87
2023/06/02 05:19:16;;;;;;;;;;;35.40;85.70;;;;;;1826867;77;21125;-85
2023/06/02 05:21:48;;;;;;;19.12;11.45;;;35.60;84.00;;;;;;1830980;77;20255;-86
2023/06/02 05:24:30;;;;;;;19.52;12.10;;;35.60;82.60;;;;;;1783430;80;21532;-86
2023/06/02 05:26:58;;;;;;;21.30;14.38;;;35.60;83.90;;;;;;1826153;77;21222;-84
2023/06/02 05:29:30;;;;;;;16.67;11.70;;;35.50;83.90;;;;;;1773421;80;21199;-85
2023/06/02 05:32:04;;;;;;;16.05;11.73;;;35.40;83.10;;;;;;1841156;76;21210;-85
2023/06/02 05:34:39;;;;;;;22.13;12.65;;;35.30;83.90;;;;;;1790001;78;21167;-86
2023/06/02 05:37:15;;;;;;;16.40;11.90;;;35.20;85.00;;;;;;1791516;79;21092;-85
2023/06/02 05:39:52;;;;;;;20.02;12.30;;;35.10;85.10;;;;;;1794793;79;21170;-85
2023/06/02 05:42:20;;;;;;;18.32;12.63;;;35.10;85.80;;;;;;1845465;77;21197;-84
2023/06/02 05:44:56;;;;;;;18.10;14.20;;;35.10;85.40;;;;;;1846758;77;21119;-83
2023/06/02 05:47:32;;;;;;;19.30;13.33;;;35.10;85.30;;;;;;1842985;77;21174;-83
2023/06/02 05:50:11;;;;;;;19.75;12.15;;;35.10;85.40;;;;;;1847662;76;21303;-84
2023/06/02 05:52:47;;;;;;;19.23;14.28;;;35.00;85.40;;;;;;1842736;77;21645;-83
2023/06/02 05:55:21;;;;;;;24.75;13.78;;;34.90;86.60;;;;;;1821997;77;21151;-84
2023/06/02 05:57:52;;;;;;;23.85;14.05;;;34.80;87.20;;;;;;1847850;77;21209;-84
2023/06/02 06:00:27;;;;;;;21.73;13.88;;;34.80;86.90;;;;;;1848662;77;21129;-84
2023/06/02 06:03:10;;;;;;;21.25;12.68;;;34.80;87.70;;;;;;1848705;75;21134;-86
2023/06/02 06:05:46;;;;;;;21.30;12.85;;;34.80;87.20;;;;;;1846357;77;21759;-85
2023/06/02 06:08:14;;;;;;;21.23;13.05;;;34.80;86.60;;;;;;1844965;76;21165;-83
2023/06/02 06:10:46;;;;;;;23.45;15.50;;;34.90;86.00;;;;;;1846031;77;21280;-85
2023/06/02 06:13:20;;;;;;;19.25;14.83;;;35.00;87.40;;;;;;1849582;77;21166;-84
2023/06/02 06:15:55;;;;;;;24.32;12.80;;;35.00;85.70;;;;;;1850750;77;21759;-84
2023/06/02 06:18:26;;;;;;;19.90;11.88;;;35.00;82.10;;;;;;1842234;77;21765;-83
2023/06/02 06:20:58;;;;;;;22.80;12.58;;;35.00;81.40;;;;;;1849005;77;21585;-83
2023/06/02 06:23:30;;;;;;;18.70;12.05;;;35.10;81.90;;;;;;1850799;76;21128;-83
2023/06/02 06:26:01;;;;;;;25.10;12.90;;;35.20;82.80;;;;;;1852427;75;21119;-84
2023/06/02 06:28:33;;;;;;;20.08;11.93;;;35.30;82.60;;;;;;1842304;77;21160;-84
2023/06/02 06:31:05;;;;;;;19.48;12.80;;;35.40;84.20;;;;;;1842678;77;21103;-81
2023/06/02 06:33:37;;;;;;;16.55;13.10;;;35.40;83.90;;;;;;1847993;75;21648;-83
2023/06/02 06:36:13;;;;;;;20.10;13.08;;;35.50;82.80;;;;;;1838743;77;21143;-83
2023/06/02 06:38:49;;;;;;;35.90;15.05;;;35.50;82.50;;;;;;1844848;75;21068;-84
2023/06/02 06:41:29;;;;;;;22.70;12.93;;;35.50;82.90;;;;;;1845455;77;21240;-82
2023/06/02 06:44:02;;;;;;;27.15;13.85;;;35.70;83.30;;;;;;1849145;77;21214;-83
2023/06/02 06:46:34;;;;;;;24.98;12.30;;;35.70;83.60;;;;;;1848308;77;21260;-80
2023/06/02 06:49:05;;;;;;;23.12;14.58;;;35.80;81.60;;;;;;1852601;77;21130;-82
2023/06/02 06:51:39;;;;;;;27.27;22.77;;;35.80;79.80;;;;;;1844900;77;21130;-83
2023/06/02 06:54:10;;;;;;;30.12;13.13;;;35.90;80.20;;;;;;1849378;77;21115;-85
2023/06/02 06:56:45;;;;;;;33.25;13.95;;;35.80;81.40;;;;;;1845672;77;21238;-82
2023/06/02 06:59:18;;;;;;;22.37;11.18;;;35.80;78.60;;;;;;1850255;77;21150;-83
2023/06/02 07:01:52;;;;;;;23.42;11.95;;;35.80;78.00;;;;;;1854511;76;21229;-85
2023/06/02 07:04:27;;;;;;;18.35;12.88;;;35.80;79.80;;;;;;1849097;77;21205;-83
2023/06/02 07:06:59;;;;;;;32.73;14.83;;;35.90;81.30;;;;;;1845784;77;21234;-82
2023/06/02 07:09:33;;;;;;;29.90;14.58;;;35.90;81.90;;;;;;1847724;77;21154;-85
2023/06/02 07:12:09;;;;;;;21.97;12.50;;;35.90;81.80;;;;;;1854614;77;21126;-85
2023/06/02 07:14:41;;;;;;;19.62;12.98;;;35.90;80.70;;;;;;1853137;77;21107;-84
2023/06/02 07:17:12;;;;;;;22.22;12.33;;;35.90;80.00;;;;;;1849529;76;21971;-84
2023/06/02 07:19:43;;;;;;;16.50;12.10;;;35.90;79.70;;;;;;1854681;77;21421;-84
2023/06/02 07:22:16;;;;;;;22.10;11.75;;;35.90;81.10;;;;;;1849572;77;21554;-83
2023/06/02 07:24:50;;;;;;;23.80;11.18;;;35.90;77.20;;;;;;1850289;77;21119;-84
2023/06/02 07:27:24;;;;;;;18.65;11.85;;;35.90;77.00;;;;;;1844546;77;22036;-83
2023/06/02 07:29:56;;;;;;;28.15;11.08;;;35.90;77.40;;;;;;1848784;77;21165;-82
2023/06/02 07:32:27;;;;;;;22.30;9.65;;;35.90;75.00;;;;;;1844004;77;21107;-83
2023/06/02 07:35:00;;;;;;;20.65;10.48;;;35.90;74.60;;;;;;1844619;76;21164;-83
2023/06/02 07:37:32;;;;;;;29.70;11.05;;;35.90;74.10;;;;;;1841966;77;21195;-83
2023/06/02 07:40:03;;;;;;;35.70;12.25;;;35.90;72.70;;;;;;1829114;77;21873;-82
2023/06/02 07:42:35;;;;;;;17.37;9.63;;;35.90;72.60;;;;;;1836764;77;21187;-84
2023/06/02 07:45:07;;;;;;;18.27;9.55;;;36.00;72.50;;;;;;1840697;77;21144;-84
2023/06/02 07:47:38;;;;;;;19.02;10.50;;;36.00;72.10;;;;;;1832385;77;21145;-82
2023/06/02 07:50:11;;;;;;;21.60;10.48;;;36.00;75.00;;;;;;1838886;77;21120;-83
2023/06/02 07:52:42;;;;;;;15.38;8.68;;;36.00;75.00;;;;;;1787973;79;21085;-84
2023/06/02 07:55:14;;;;;;;23.57;9.03;;;36.00;69.70;;;;;;1770584;81;21085;-83
2023/06/02 07:57:46;;;;;;;14.18;8.20;;;36.00;70.40;;;;;;1779004;79;21178;-82
2023/06/02 08:00:21;;;;;;;15.25;8.43;;;35.90;69.70;;;;;;1776446;79;21146;-82
2023/06/02 08:02:56;;;;;;;13.22;7.92;;;36.00;70.90;;;;;;1772015;79;21170;-83
2023/06/02 08:05:29;;;;;;;13.30;8.80;;;36.00;70.30;;;;;;1774525;79;21166;-84
2023/06/02 08:08:00;;;;;;;18.20;9.45;;;36.00;68.70;;;;;;1842884;77;21749;-84
2023/06/02 08:10:34;;;;;;;15.25;10.75;;;36.00;69.70;;;;;;1836696;77;21208;-85
2023/06/02 08:13:05;;;;;;;19.45;10.32;;;36.00;71.00;;;;;;1836282;77;21106;-82
2023/06/02 08:15:37;;;;;;;17.57;8.83;;;36.00;70.60;;;;;;1838792;76;21294;-83
2023/06/02 08:18:15;;;;;;;13.08;9.58;;;35.90;66.30;;;;;;1837194;77;21086;-82
2023/06/02 08:20:47;;;;;;;15.83;9.18;;;35.90;66.20;;;;;;1839741;76;21222;-81
2023/06/02 08:23:20;;;;;;;20.43;10.30;;;35.90;67.40;;;;;;1839142;76;21135;-81
2023/06/02 08:25:58;;;;;;;16.62;9.83;;;35.80;68.30;;;;;;1785806;79;21230;-82
2023/06/02 08:28:33;;;;;;;16.65;9.78;;;35.80;67.40;;;;;;1805535;78;21205;-84
2023/06/02 08:31:06;;;;;;;16.05;10.10;;;35.80;68.10;;;;;;1786886;79;21120;-82
2023/06/02 08:33:42;;;;;;;18.57;10.13;;;35.80;68.40;;;;;;1786205;79;21607;-80
2023/06/02 08:36:17;;;;;;;22.10;9.28;;;35.70;67.60;;;;;;1773776;79;21164;-76
2023/06/02 08:38:54;;;;;;;39.92;11.90;;;35.70;65.70;;;;;;1786474;79;21280;-78
2023/06/02 08:41:29;;;;;;;29.07;10.25;;;35.60;65.40;;;;;;1772216;79;21266;-78
2023/06/02 08:44:01;;;;;;;21.37;9.68;;;35.70;66.10;;;;;;1814275;78;21204;-74
2023/06/02 08:46:33;;;;;;;27.62;10.58;;;35.70;65.00;;;;;;1799194;78;21256;-80
2023/06/02 08:49:05;;;;;;;16.25;9.13;;;35.70;65.90;;;;;;1793954;78;21536;-77
2023/06/02 08:51:47;;;;;;;17.17;9.18;;;35.70;65.80;;;;;;1786578;79;21505;-79
2023/06/02 08:54:21;;;;;;;35.98;10.50;;;35.60;64.40;;;;;;1809644;78;21567;-76
2023/06/02 08:56:56;;;;;;;20.32;8.90;;;35.70;66.60;;;;;;1805762;78;21158;-76
2023/06/02 08:59:26;;;;;;;17.60;8.93;;;35.60;64.70;;;;;;1845021;76;22115;-77
2023/06/02 09:02:03;;;;;;;20.77;9.90;;;35.60;66.00;;;;;;1847168;76;21176;-77
2023/06/02 09:04:30;;;;;;;15.58;9.40;;;35.60;67.50;;;;;;1852249;76;21172;-76
2023/06/02 09:07:28;;;;;;;16.93;9.85;;;35.60;66.80;;;;;;1835226;77;21146;-80
2023/06/02 09:10:03;;;;;;;14.80;8.18;;;35.60;64.40;;;;;;1797821;76;21199;-77
2023/06/02 09:12:51;;;;;;;13.45;8.15;;;35.60;60.80;;;;;;1838477;76;21507;-76
2023/06/02 09:15:24;;;;;;;16.27;8.80;;;35.50;62.70;;;;;;1852641;76;21525;-79
2023/06/02 09:18:14;;;;;;;14.07;8.53;;;35.50;61.60;;;;;;1837029;76;21163;-77
2023/06/02 09:20:48;;;;;;;17.40;8.08;;;35.50;61.50;;;;;;1834988;76;21128;-78
2023/06/02 09:23:21;;;;;;;28.83;9.68;;;35.50;61.40;;;;;;1794154;79;21203;-79
2023/06/02 09:25:55;;;;;;;16.60;8.35;;;35.60;62.70;;;;;;1795693;78;21603;-78
2023/06/02 09:28:33;;;;;;;19.17;9.38;;;35.60;63.60;;;;;;1796567;79;21796;-77
2023/06/02 09:31:06;;;;;;;22.75;8.78;;;35.60;62.80;;;;;;1802566;78;21148;-78
2023/06/02 09:33:38;;;;;;;13.15;8.38;;;35.50;65.10;;;;;;1779913;80;21129;-77
2023/06/02 09:36:29;;;;;;;10.32;7.85;;;35.50;66.30;;;;;;1841903;77;21163;-78
2023/06/02 09:38:55;;;;;;;13.90;8.03;;;35.50;66.20;;;;;;1848349;76;21108;-78
2023/06/02 09:41:30;;;;;;;17.95;9.50;;;35.40;66.30;;;;;;1841537;77;21176;-80
2023/06/02 09:44:03;;;;;;;19.80;9.50;;;35.40;65.70;;;;;;1815328;77;21164;-80
2023/06/02 09:46:37;;;;;;;17.37;8.38;;;35.40;65.10;;;;;;1845101;76;21119;-80
2023/06/02 09:49:08;;;;;;;15.45;8.60;;;35.40;63.70;;;;;;1837053;77;21167;-81
2023/06/02 09:51:40;;;;;;;16.75;8.85;;;35.40;64.40;;;;;;1847093;76;21127;-78
2023/06/02 09:54:12;;;;;;;23.77;9.08;;;35.40;65.30;;;;;;1807188;77;21077;-80
2023/06/02 09:56:45;;;;;;;26.42;9.88;;;35.30;65.30;;;;;;1850034;76;21053;-78
2023/06/02 09:59:18;;;;;;;16.27;9.10;;;35.40;67.00;;;;;;1843813;77;21135;-77
2023/06/02 10:01:50;;;;;;;16.73;9.35;;;35.40;65.30;;;;;;1797996;79;21183;-78
2023/06/02 10:04:29;;;;;;;16.23;9.88;;;35.30;65.90;;;;;;1839455;76;21582;-78
2023/06/02 10:07:14;;;;;;;22.67;11.03;;;35.30;67.20;;;;;;1846100;77;21176;-79
2023/06/02 10:09:58;;;;;;;15.15;8.38;;;35.30;68.00;;;;;;1860411;76;21196;-77
2023/06/02 10:12:42;;;;;;;15.63;9.03;;;35.30;65.70;;;;;;1847217;77;21727;-78
2023/06/02 10:15:38;;;;;;;19.65;9.70;;;35.30;64.90;;;;;;1838226;76;21256;-77
2023/06/02 10:18:43;;;;;;;18.42;8.20;;;35.30;65.50;;;;;;1834630;77;21144;-77
2023/06/02 10:21:32;;;;;;;15.03;9.40;;;35.30;64.40;;;;;;1841999;76;21135;-78
2023/06/02 10:24:21;;;;;;;18.40;9.63;;;35.30;63.90;;;;;;1852105;76;21224;-78
2023/06/02 10:27:11;;;;;;;15.35;8.88;;;35.30;63.10;;;;;;1842788;76;21111;-81
2023/06/02 10:29:45;;;;;;;18.20;9.70;;;35.30;63.60;;;;;;1833208;77;21077;-78
2023/06/02 10:32:34;;;;;;;15.18;9.03;;;35.20;65.30;;;;;;1833593;77;21097;-78
2023/06/02 10:35:02;;;;;;;18.65;10.78;;;35.20;65.50;;;;;;1839311;76;21139;-81
2023/06/02 10:37:36;;;;;;;20.60;13.40;;;35.20;66.10;;;;;;1843943;77;21223;-79
2023/06/02 10:40:23;;;;;;;21.45;15.55;;;35.20;67.70;;;;;;1836442;77;21109;-78
2023/06/02 10:43:04;;;;;;;27.98;19.75;;;35.10;68.30;;;;;;1787036;78;21169;-79
2023/06/02 10:45:36;;;;;;;28.23;18.17;;;35.10;68.60;;;;;;1835125;77;21101;-79
2023/06/02 10:48:38;;;;;;;26.93;15.68;;;35.10;69.20;;;;;;1844621;76;21136;-78
2023/06/02 10:51:12;;;;;;;23.18;13.68;;;35.10;68.50;;;;;;1832534;76;21596;-80
2023/06/02 10:54:06;;;;;;;21.25;15.00;;;35.00;69.00;;;;;;1835489;77;21204;-77
2023/06/02 10:56:42;;;;;;;25.45;15.30;;;35.00;68.80;;;;;;1788000;78;21301;-81
2023/06/02 10:59:15;;;;;;;16.93;12.37;;;35.00;69.20;;;;;;1800059;78;21146;-80
2023/06/02 11:01:54;;;;;;;28.62;12.78;;;35.00;70.50;;;;;;1795708;78;21229;-79
2023/06/02 11:04:34;;;;;;;21.48;13.13;;;34.90;71.10;;;;;;1769804;81;21758;-78
2023/06/02 11:07:18;;;;;;;18.10;12.68;;;34.90;70.90;;;;;;1793397;78;21140;-77
2023/06/02 11:09:53;;;;;;;22.83;12.07;;;34.80;71.40;;;;;;1803692;78;21399;-77
2023/06/02 11:12:43;;;;;;;19.87;11.88;;;34.80;72.20;;;;;;1759637;79;21096;-78
2023/06/02 11:15:15;;;;;;;24.45;12.73;;;34.80;73.20;;;;;;1783707;79;21191;-79
2023/06/02 11:17:47;;;;;;;19.73;12.98;;;34.80;72.60;;;;;;1771276;79;21111;-78
2023/06/02 11:20:39;;;;;;;24.37;12.85;;;34.70;73.20;;;;;;1792761;78;21103;-78
2023/06/02 11:23:11;;;;;;;19.92;12.63;;;34.70;73.30;;;;;;1842179;78;21102;-79
2023/06/02 11:25:43;;;;;;;18.07;12.63;;;34.60;73.90;;;;;;1833447;77;21260;-78
2023/06/02 11:28:21;;;;;;;27.02;14.25;;;34.60;74.10;;;;;;1879821;76;21624;-78
2023/06/02 11:31:06;;;;;;;26.48;14.83;;;34.60;74.40;;;;;;1878726;75;21113;-80
2023/06/02 11:33:38;;;;;;;25.62;15.93;;;34.50;75.20;;;;;;1877116;76;21711;-78
2023/06/02 11:36:12;;;;;;;24.37;14.68;;;34.50;76.20;;;;;;1863306;76;21648;-77
2023/06/02 11:38:44;;;;;;;21.57;14.60;;;34.50;76.50;;;;;;1890301;74;21671;-77
2023/06/02 11:41:16;;;;;;;30.43;14.05;;;34.50;76.70;;;;;;1890287;74;21078;-77
2023/06/02 11:43:50;;;;;;;24.47;12.53;;;34.40;77.30;;;;;;1870666;76;21184;-74
2023/06/02 11:46:21;;;;;;;30.00;13.22;;;34.30;77.60;;;;;;1837541;76;21707;-76
2023/06/02 11:48:53;;;;;;;24.32;12.73;;;34.30;77.60;;;;;;1866450;76;21612;-77
2023/06/02 11:51:24;;;;;;;20.08;13.25;;;34.30;77.30;;;;;;1878974;75;21165;-77
2023/06/02 11:54:07;;;;;;;21.07;13.55;;;34.30;77.70;;;;;;1864863;76;21168;-75
2023/06/02 11:56:38;;;;;;;25.30;13.88;;;34.20;78.10;;;;;;1873432;76;21183;-75
2023/06/02 11:59:12;;;;;;;27.58;15.80;;;34.20;78.00;;;;;;1856203;76;21152;-77
2023/06/02 12:01:44;;;;;;;25.30;14.83;;;34.10;78.30;;;;;;1870385;75;21105;-76
2023/06/02 12:04:16;;;;;;;22.93;14.00;;;34.10;78.10;;;;;;1836799;78;21219;-75
2023/06/02 12:06:50;;;;;;;20.90;13.85;;;34.10;77.80;;;;;;1826617;78;21169;-77
2023/06/02 12:09:22;;;;;;;26.27;14.65;;;34.10;77.90;;;;;;1835213;76;21674;-75
2023/06/02 12:11:55;;;;;;;22.30;13.78;;;34.00;77.60;;;;;;1830756;76;21182;-78
2023/06/02 12:14:25;;;;;;;27.98;14.20;;;34.00;78.20;;;;;;1798560;78;21093;-78
2023/06/02 12:17:06;;;;;;;23.95;13.68;;;34.00;78.10;;;;;;1878328;75;21090;-76
2023/06/02 12:19:37;;;;;;;23.05;12.82;;;34.00;78.40;;;;;;1879385;76;21220;-77
2023/06/02 12:22:14;;;;;;;19.35;12.98;;;33.90;78.40;;;;;;1893972;74;21159;-76
2023/06/02 12:24:46;;;;;;;22.80;13.58;;;33.90;78.10;;;;;;1893964;75;21093;-77
2023/06/02 12:27:24;;;;;;;21.10;13.20;;;33.90;78.70;;;;;;1848024;77;21122;-77
2023/06/02 12:29:56;;;;;;;23.65;13.85;;;33.90;78.80;;;;;;1824189;77;21141;-76
2023/06/02 12:32:29;;;;;;;27.35;14.75;;;33.80;78.40;;;;;;1823225;77;21134;-74
2023/06/02 12:35:00;;;;;;;23.87;14.65;;;33.80;78.40;;;;;;1847380;77;21127;-78
2023/06/02 12:37:50;;;;;;;22.55;13.55;;;33.80;78.80;;;;;;1845263;76;21556;-76
2023/06/02 12:40:21;;;;;;;18.55;12.98;;;33.70;78.60;;;;;;1884539;75;21149;-76
2023/06/02 12:42:53;;;;;;;27.82;14.58;;;33.70;78.80;;;;;;1843619;76;21168;-77
2023/06/02 12:45:28;;;;;;;25.77;14.78;;;33.70;78.80;;;;;;1823369;78;21643;-77
2023/06/02 12:47:59;;;;;;;21.70;13.13;;;33.70;78.80;;;;;;1815154;78;21597;-79
2023/06/02 12:50:31;;;;;;;23.05;13.25;;;33.70;79.10;;;;;;1821235;78;21170;-76
2023/06/02 12:53:02;;;;;;;24.63;13.45;;;33.70;79.10;;;;;;1844174;77;22011;-77
2023/06/02 12:55:34;;;;;;;24.75;13.15;;;33.70;79.00;;;;;;1843100;77;21510;-79
2023/06/02 12:58:08;;;;;;;19.92;12.33;;;33.60;79.30;;;;;;1845002;77;21121;-76
2023/06/02 13:00:41;;;;;;;23.02;12.82;;;33.60;78.80;;;;;;1845963;77;21138;-77
2023/06/02 13:03:13;;;;;;;22.02;13.15;;;33.60;79.30;;;;;;1840802;77;21806;-76
2023/06/02 13:05:59;;;;;;;19.98;13.15;;;33.60;79.40;;;;;;1894826;75;21090;-76